Time;durP1;ratioP1;P1;durP2;ratioP2;P2;SDS_P1;SDS_P2;PMS_P1;PMS_P2;Temp;Humidity;BMP_temperature;BMP_pressure;BME280_temperature;BME280_humidity;BME280_pressure;Samples;Min_cycle;Max_cycle;Signal;HPM_P1;HPM_P2
2022/08/09 00:00:47;;;;;;;5.50;5.05;;;;;;;16.47;96.76;102641.66;5064553;28;20404;-62
2022/08/09 00:03:12;;;;;;;5.40;4.90;;;;;;;16.44;97.23;102629.38;5067093;28;20028;-62
2022/08/09 00:05:37;;;;;;;5.18;4.78;;;;;;;16.42;96.75;102633.66;5064114;28;20032;-62
2022/08/09 00:08:03;;;;;;;5.32;4.80;;;;;;;16.40;97.48;102630.09;5065043;28;20458;-63
2022/08/09 00:10:30;;;;;;;5.13;4.50;;;;;;;16.39;97.77;102634.44;5063862;28;20031;-63
2022/08/09 00:12:55;;;;;;;5.63;5.03;;;;;;;16.39;97.34;102636.16;5062557;28;20119;-62
2022/08/09 00:15:21;;;;;;;6.00;4.75;;;;;;;16.34;98.10;102628.16;5065326;28;20111;-62
2022/08/09 00:17:46;;;;;;;5.65;5.13;;;;;;;16.31;97.54;102628.94;5068763;28;20016;-63
2022/08/09 00:20:11;;;;;;;7.63;5.07;;;;;;;16.28;97.72;102623.56;5062387;28;20039;-62
2022/08/09 00:22:37;;;;;;;6.72;5.07;;;;;;;16.26;97.69;102627.84;5064410;28;20024;-63
2022/08/09 00:25:02;;;;;;;5.30;4.90;;;;;;;16.26;97.98;102627.00;5058933;28;20040;-63
2022/08/09 00:27:28;;;;;;;6.00;4.88;;;;;;;16.24;98.23;102624.31;5062557;28;20353;-63
2022/08/09 00:29:53;;;;;;;5.53;5.03;;;;;;;16.20;98.47;102628.53;5058485;28;20027;-62
2022/08/09 00:32:20;;;;;;;5.10;4.53;;;;;;;16.17;98.97;102628.41;5060850;28;20024;-63
2022/08/09 00:34:45;;;;;;;4.93;4.47;;;;;;;16.15;99.19;102626.59;5063791;28;20037;-62
2022/08/09 00:37:10;;;;;;;5.32;4.93;;;;;;;16.13;99.41;102630.88;5066156;28;20027;-63
2022/08/09 00:39:35;;;;;;;5.60;4.93;;;;;;;16.14;99.13;102624.78;5064218;28;20024;-63
2022/08/09 00:42:01;;;;;;;5.25;4.82;;;;;;;16.15;98.87;102623.97;5061218;28;20025;-63
2022/08/09 00:44:26;;;;;;;6.97;4.97;;;;;;;16.14;98.97;102627.41;5065322;28;20012;-63
2022/08/09 00:46:51;;;;;;;5.35;4.78;;;;;;;16.12;99.67;102623.88;5064754;28;20038;-62
2022/08/09 00:49:17;;;;;;;5.55;4.55;;;;;;;16.12;99.16;102632.59;5066752;28;20025;-63
2022/08/09 00:51:42;;;;;;;4.70;4.30;;;;;;;16.10;99.59;102626.41;5066334;28;20364;-62
2022/08/09 00:54:07;;;;;;;5.43;4.63;;;;;;;16.10;99.23;102628.13;5065179;28;20020;-62
2022/08/09 00:56:33;;;;;;;6.60;4.82;;;;;;;16.08;99.61;102628.09;5066383;28;20154;-63
2022/08/09 00:58:58;;;;;;;4.93;4.47;;;;;;;16.05;98.71;102626.22;5066923;28;20027;-63
2022/08/09 01:01:31;;;;;;;4.82;4.38;;;;;;;16.01;99.12;102631.31;5063511;28;20028;-63
2022/08/09 01:04:03;;;;;;;5.70;4.68;;;;;;;15.97;98.37;102638.97;5062207;28;20013;-63
2022/08/09 01:06:47;;;;;;;4.60;4.25;;;;;;;15.89;99.95;102629.06;5062105;28;20047;-62
2022/08/09 01:09:34;;;;;;;5.00;4.43;;;;;;;15.80;99.97;102627.88;5058203;28;20029;-62
2022/08/09 01:12:11;;;;;;;6.40;4.75;;;;;;;15.75;100.00;102624.19;5063115;28;20086;-62
2022/08/09 01:15:09;;;;;;;5.53;4.22;;;;;;;15.74;100.00;102627.63;5063172;28;20035;-63
2022/08/09 01:17:40;;;;;;;5.50;4.60;;;;;;;15.75;100.00;102639.88;5054135;28;20111;-62
2022/08/09 01:20:12;;;;;;;5.70;4.60;;;;;;;15.71;100.00;102622.28;5062592;28;20025;-63
2022/08/09 01:22:53;;;;;;;5.03;4.53;;;;;;;15.70;100.00;102625.75;5060879;28;20182;-62
2022/08/09 01:25:33;;;;;;;5.57;4.60;;;;;;;15.69;100.00;102626.56;5060896;28;20092;-63
2022/08/09 01:28:00;;;;;;;5.22;4.78;;;;;;;15.69;100.00;102640.53;5062466;28;20037;-63
2022/08/09 01:30:29;;;;;;;4.80;4.40;;;;;;;15.69;100.00;102639.63;5061082;28;20020;-63
2022/08/09 01:32:56;;;;;;;5.25;4.68;;;;;;;15.67;100.00;102636.09;5060708;28;20021;-63
2022/08/09 01:35:58;;;;;;;6.45;5.60;;;;;;;15.63;100.00;102636.78;5065033;28;20455;-63
2022/08/09 01:38:28;;;;;;;5.03;4.68;;;;;;;15.58;100.00;102621.81;5067622;28;20086;-63
2022/08/09 01:41:03;;;;;;;5.07;4.67;;;;;;;15.54;100.00;102638.19;5060475;28;20057;-63
2022/08/09 01:43:30;;;;;;;7.47;4.68;;;;;;;15.52;100.00;102626.81;5061364;28;20016;-63
2022/08/09 01:45:56;;;;;;;5.93;5.43;;;;;;;15.50;100.00;102620.63;5064329;28;20021;-63
2022/08/09 01:48:22;;;;;;;5.25;4.70;;;;;;;15.48;100.00;102619.66;5064910;28;20533;-62
2022/08/09 01:50:51;;;;;;;5.35;4.82;;;;;;;15.47;100.00;102628.34;5064142;28;20408;-63
2022/08/09 01:53:19;;;;;;;5.05;4.53;;;;;;;15.44;100.00;102633.44;5065401;28;20107;-62
2022/08/09 01:55:46;;;;;;;5.50;5.05;;;;;;;15.42;100.00;102629.84;5065500;28;20028;-62
2022/08/09 01:58:13;;;;;;;4.95;4.30;;;;;;;15.38;100.00;102627.97;5066469;28;20020;-62
2022/08/09 02:00:40;;;;;;;5.95;5.05;;;;;;;15.35;100.00;102629.63;5064193;28;20100;-62
2022/08/09 02:03:06;;;;;;;5.15;4.47;;;;;;;15.34;100.00;102635.66;5060884;28;20016;-63
2022/08/09 02:05:34;;;;;;;5.15;4.72;;;;;;;15.32;100.00;102637.34;5062007;28;20028;-63
2022/08/09 02:08:03;;;;;;;5.00;4.57;;;;;;;15.31;100.00;102632.94;5061751;28;20464;-62
2022/08/09 02:10:42;;;;;;;8.63;5.50;;;;;;;15.29;100.00;102638.94;5062359;28;20029;-63
2022/08/09 02:13:11;;;;;;;5.65;5.05;;;;;;;15.25;100.00;102643.13;5065106;28;20096;-62
2022/08/09 02:15:40;;;;;;;5.80;5.30;;;;;;;15.22;100.00;102648.22;5067104;28;20027;-62
2022/08/09 02:18:06;;;;;;;6.35;5.20;;;;;;;15.21;100.00;102643.84;5059768;28;20460;-62
2022/08/09 02:20:37;;;;;;;7.85;5.95;;;;;;;15.18;100.00;102647.19;5065852;28;20016;-63
2022/08/09 02:23:16;;;;;;;6.28;5.72;;;;;;;15.11;100.00;102639.97;5064994;28;20465;-63
2022/08/09 02:25:44;;;;;;;6.57;5.82;;;;;;;15.08;100.00;102638.09;5064233;28;20055;-62
2022/08/09 02:28:16;;;;;;;9.30;6.07;;;;;;;15.07;100.00;102643.25;5065713;28;20027;-62
2022/08/09 02:30:49;;;;;;;7.22;5.97;;;;;;;15.02;100.00;102624.78;5066282;28;20020;-62
2022/08/09 02:33:19;;;;;;;8.00;6.38;;;;;;;14.98;100.00;102634.22;5063940;28;20025;-63
2022/08/09 02:35:47;;;;;;;6.82;6.22;;;;;;;14.97;100.00;102639.34;5071390;28;20025;-63
2022/08/09 02:38:19;;;;;;;7.60;6.97;;;;;;;14.92;100.00;102639.16;5068085;28;20024;-62
2022/08/09 02:40:45;;;;;;;6.57;5.97;;;;;;;14.88;100.00;102632.94;5069876;28;20045;-62
2022/08/09 02:43:11;;;;;;;7.53;6.82;;;;;;;14.84;100.00;102637.97;5063410;28;20024;-63
2022/08/09 02:45:42;;;;;;;7.45;6.78;;;;;;;14.78;100.00;102628.09;5069511;28;20082;-63
2022/08/09 02:48:12;;;;;;;7.60;6.90;;;;;;;14.74;100.00;102628.78;5068552;28;20032;-63
2022/08/09 02:50:44;;;;;;;7.72;6.40;;;;;;;14.73;100.00;102633.13;5069235;28;20090;-62
2022/08/09 02:53:27;;;;;;;7.68;6.70;;;;;;;14.71;100.00;102633.88;5069297;28;20085;-63
2022/08/09 02:55:55;;;;;;;7.90;7.18;;;;;;;14.71;100.00;102631.28;5068063;28;20024;-62
2022/08/09 02:58:24;;;;;;;6.68;6.15;;;;;;;14.70;100.00;102626.88;5059318;28;20055;-62
2022/08/09 03:00:51;;;;;;;7.18;6.47;;;;;;;14.69;100.00;102630.31;5059068;28;20025;-63
2022/08/09 03:03:18;;;;;;;6.93;6.22;;;;;;;14.67;100.00;102627.66;5063876;28;20047;-63
2022/08/09 03:05:45;;;;;;;7.65;6.50;;;;;;;14.67;100.00;102624.13;5063682;28;20090;-62
2022/08/09 03:08:13;;;;;;;7.50;6.82;;;;;;;14.68;100.00;102628.53;5065799;28;20029;-61
2022/08/09 03:10:40;;;;;;;7.55;6.72;;;;;;;14.67;100.00;102627.66;5065310;28;20067;-62
2022/08/09 03:13:06;;;;;;;7.10;6.50;;;;;;;14.65;100.00;102629.28;5066781;28;20090;-62
2022/08/09 03:15:33;;;;;;;8.55;6.97;;;;;;;14.59;100.00;102619.47;5067162;28;20141;-62
2022/08/09 03:17:59;;;;;;;7.18;6.47;;;;;;;14.55;100.00;102620.19;5065578;28;20033;-62
2022/08/09 03:20:26;;;;;;;7.30;6.60;;;;;;;14.52;100.00;102622.63;5065052;28;20027;-62
2022/08/09 03:22:53;;;;;;;6.85;6.32;;;;;;;14.48;100.00;102623.34;5064958;28;20027;-63
2022/08/09 03:25:19;;;;;;;6.88;6.38;;;;;;;14.46;100.00;102628.50;5064683;28;20034;-62
2022/08/09 03:27:48;;;;;;;7.57;6.88;;;;;;;14.41;100.00;102620.44;5062220;28;20173;-62
2022/08/09 03:30:14;;;;;;;7.32;6.60;;;;;;;14.41;100.00;102616.94;5064129;28;20368;-63
2022/08/09 03:32:40;;;;;;;8.25;7.38;;;;;;;14.39;100.00;102622.09;5063089;28;20043;-63
2022/08/09 03:35:10;;;;;;;8.20;7.10;;;;;;;14.38;100.00;102620.31;5066638;28;20054;-62
2022/08/09 03:37:36;;;;;;;8.38;7.45;;;;;;;14.38;100.00;102630.75;5068480;28;20028;-63
2022/08/09 03:40:02;;;;;;;7.55;6.85;;;;;;;14.36;100.00;102621.97;5067800;28;20049;-62
2022/08/09 03:42:27;;;;;;;8.20;7.40;;;;;;;14.34;100.00;102628.81;5067368;28;20028;-62
2022/08/09 03:44:52;;;;;;;7.70;7.00;;;;;;;14.32;100.00;102630.47;5068845;28;20478;-63
2022/08/09 03:47:17;;;;;;;7.82;7.13;;;;;;;14.31;100.00;102626.09;5067730;28;20308;-63
2022/08/09 03:49:44;;;;;;;7.57;6.88;;;;;;;14.30;100.00;102629.53;5067698;28;20028;-62
2022/08/09 03:52:10;;;;;;;7.30;6.63;;;;;;;14.31;100.00;102627.78;5069022;28;20020;-63
2022/08/09 03:54:37;;;;;;;9.10;7.28;;;;;;;14.31;100.00;102631.28;5062142;28;20073;-62
2022/08/09 03:57:08;;;;;;;7.72;7.05;;;;;;;14.32;100.00;102627.84;5062549;28;20700;-62
2022/08/09 03:59:34;;;;;;;8.05;7.05;;;;;;;14.30;100.00;102637.34;5062574;28;20024;-62
2022/08/09 04:01:59;;;;;;;8.30;7.50;;;;;;;14.28;100.00;102636.38;5064598;28;20539;-63
2022/08/09 04:04:27;;;;;;;7.63;6.72;;;;;;;14.26;100.00;102635.41;5063125;28;20091;-62
2022/08/09 04:06:52;;;;;;;8.05;6.95;;;;;;;14.22;100.00;102634.38;5061564;28;20055;-62
2022/08/09 04:09:18;;;;;;;7.18;6.57;;;;;;;14.21;100.00;102631.72;5062546;28;20501;-62
2022/08/09 04:11:49;;;;;;;7.78;6.97;;;;;;;14.17;100.00;102631.53;5064549;28;20028;-62
2022/08/09 04:14:16;;;;;;;7.25;6.72;;;;;;;14.13;100.00;102629.66;5062368;28;20021;-63
2022/08/09 04:16:41;;;;;;;7.63;6.93;;;;;;;14.08;100.00;102631.16;5065268;28;20027;-62
2022/08/09 04:19:06;;;;;;;7.28;6.63;;;;;;;14.05;100.00;102633.59;5065723;28;20028;-63
2022/08/09 04:21:32;;;;;;;9.00;7.35;;;;;;;13.99;100.00;102631.63;5060615;28;20494;-63
2022/08/09 04:23:57;;;;;;;6.97;6.30;;;;;;;13.92;100.00;102625.19;5068383;28;20024;-63
2022/08/09 04:26:22;;;;;;;7.80;7.20;;;;;;;13.86;100.00;102630.16;5059851;28;20381;-62
2022/08/09 04:28:48;;;;;;;7.60;6.97;;;;;;;13.81;100.00;102642.06;5067122;28;20020;-62
2022/08/09 04:31:13;;;;;;;8.65;7.53;;;;;;;13.77;100.00;102640.13;5064749;28;20016;-62
2022/08/09 04:33:38;;;;;;;8.02;7.32;;;;;;;13.76;100.00;102646.16;5064429;28;20025;-63
2022/08/09 04:36:04;;;;;;;7.75;6.72;;;;;;;13.78;100.00;102649.75;5067571;28;20021;-62
2022/08/09 04:38:29;;;;;;;8.27;7.57;;;;;;;13.81;100.00;102652.50;5067474;28;20096;-62
2022/08/09 04:40:55;;;;;;;8.32;7.03;;;;;;;13.83;100.00;102656.06;5061717;28;20047;-62
2022/08/09 04:43:21;;;;;;;8.48;7.53;;;;;;;13.85;100.00;102662.22;5062087;28;20124;-62
2022/08/09 04:45:46;;;;;;;7.72;6.75;;;;;;;13.84;100.00;102656.94;5066320;28;20098;-62
2022/08/09 04:48:12;;;;;;;7.88;7.18;;;;;;;13.82;100.00;102656.88;5067574;28;20502;-62
2022/08/09 04:50:37;;;;;;;9.23;7.75;;;;;;;13.82;100.00;102656.88;5063341;28;20454;-62
2022/08/09 04:53:06;;;;;;;8.98;8.18;;;;;;;13.82;100.00;102654.25;5059277;28;20509;-62
2022/08/09 04:55:31;;;;;;;11.10;7.75;;;;;;;13.84;100.00;102663.06;5058636;28;20023;-63
2022/08/09 04:57:57;;;;;;;9.63;7.72;;;;;;;13.89;100.00;102656.34;5059524;28;20024;-62
2022/08/09 05:00:22;;;;;;;7.90;7.10;;;;;;;13.96;100.00;102661.84;5059979;28;20020;-62
2022/08/09 05:02:47;;;;;;;9.82;8.95;;;;;;;14.01;100.00;102665.56;5060585;28;20082;-62
2022/08/09 05:05:12;;;;;;;9.45;8.48;;;;;;;14.05;100.00;102668.38;5061807;28;20074;-62
2022/08/09 05:07:38;;;;;;;9.90;7.90;;;;;;;14.10;100.00;102666.00;5064745;28;20479;-62
2022/08/09 05:10:03;;;;;;;8.85;8.05;;;;;;;14.16;100.00;102668.88;5065674;28;20028;-62
2022/08/09 05:12:30;;;;;;;9.00;7.57;;;;;;;14.22;100.00;102672.59;5065552;28;20087;-62
2022/08/09 05:14:55;;;;;;;9.30;8.13;;;;;;;14.28;100.00;102667.66;5057696;28;20082;-62
2022/08/09 05:17:20;;;;;;;8.93;8.05;;;;;;;14.35;100.00;102671.44;5063807;28;20192;-63
2022/08/09 05:19:45;;;;;;;8.10;7.30;;;;;;;14.41;100.00;102680.44;5059565;28;20074;-62
2022/08/09 05:22:12;;;;;;;9.65;8.30;;;;;;;14.49;100.00;102674.66;5060655;28;20028;-62
2022/08/09 05:24:38;;;;;;;8.65;7.85;;;;;;;14.55;100.00;102672.34;5066200;28;20017;-63
2022/08/09 05:27:03;;;;;;;9.98;8.93;;;;;;;14.61;100.00;102674.31;5058961;28;20395;-63
2022/08/09 05:29:29;;;;;;;9.52;8.25;;;;;;;14.68;100.00;102672.91;5063332;28;20023;-62
2022/08/09 05:31:58;;;;;;;11.70;8.13;;;;;;;14.75;100.00;102681.03;5064152;28;20024;-62
2022/08/09 05:34:26;;;;;;;8.77;7.90;;;;;;;14.83;100.00;102676.19;5062379;28;20017;-62
2022/08/09 05:36:51;;;;;;;8.98;7.80;;;;;;;14.91;100.00;102673.03;5059256;28;20465;-62
2022/08/09 05:39:17;;;;;;;9.32;7.68;;;;;;;14.98;100.00;102664.66;5075834;28;20034;-62
2022/08/09 05:41:42;;;;;;;10.15;9.15;;;;;;;15.06;100.00;102676.28;5086214;28;20052;-62
2022/08/09 05:44:08;;;;;;;9.50;8.52;;;;;;;15.12;100.00;102678.28;5087003;28;20091;-62
2022/08/09 05:46:33;;;;;;;9.38;8.55;;;;;;;15.20;100.00;102678.63;5085635;28;20028;-63
2022/08/09 05:48:59;;;;;;;9.35;7.97;;;;;;;15.29;100.00;102686.81;5087282;28;20034;-62
2022/08/09 05:51:24;;;;;;;11.35;8.10;;;;;;;15.40;100.00;102683.78;5087118;28;20527;-62
2022/08/09 05:53:49;;;;;;;9.05;8.23;;;;;;;15.50;100.00;102678.09;5087055;28;20020;-63
2022/08/09 05:56:15;;;;;;;8.48;7.68;;;;;;;15.61;100.00;102684.63;5086567;28;20035;-63
2022/08/09 05:58:40;;;;;;;8.70;7.45;;;;;;;15.73;100.00;102680.75;5086395;28;20541;-62
2022/08/09 06:01:05;;;;;;;9.40;7.30;;;;;;;15.87;100.00;102690.84;5078709;28;20028;-63
2022/08/09 06:03:31;;;;;;;9.88;8.95;;;;;;;15.97;100.00;102690.38;5081524;28;20108;-63
2022/08/09 06:05:56;;;;;;;7.80;7.00;;;;;;;16.10;100.00;102696.13;5074440;28;20036;-62
2022/08/09 06:08:21;;;;;;;9.98;8.65;;;;;;;16.22;100.00;102687.84;5075063;28;20357;-62
2022/08/09 06:10:46;;;;;;;9.63;7.60;;;;;;;16.35;100.00;102697.06;5080434;28;20405;-62
2022/08/09 06:13:12;;;;;;;9.20;8.23;;;;;;;16.49;100.00;102695.84;5073306;28;20067;-63
2022/08/09 06:15:38;;;;;;;10.88;7.95;;;;;;;16.62;100.00;102699.78;5078885;28;20574;-63
2022/08/09 06:18:05;;;;;;;8.30;7.15;;;;;;;16.75;100.00;102693.28;5076030;28;20029;-63
2022/08/09 06:20:31;;;;;;;8.73;7.13;;;;;;;16.91;100.00;102693.81;5069056;28;20085;-62
2022/08/09 06:22:56;;;;;;;7.55;6.85;;;;;;;17.08;100.00;102701.38;5074683;28;20026;-62
2022/08/09 06:25:22;;;;;;;8.75;7.95;;;;;;;17.24;100.00;102706.34;5071895;28;20254;-62
2022/08/09 06:27:47;;;;;;;7.60;6.80;;;;;;;17.43;100.00;102700.81;5077294;28;20024;-62
2022/08/09 06:30:13;;;;;;;7.25;6.53;;;;;;;17.61;99.69;102703.16;5070630;28;20392;-62
2022/08/09 06:32:38;;;;;;;8.18;7.38;;;;;;;17.79;97.16;102712.44;5076368;28;20103;-62
2022/08/09 06:35:04;;;;;;;8.13;7.43;;;;;;;17.92;96.60;102704.09;5082304;28;20498;-61
2022/08/09 06:37:29;;;;;;;8.00;7.20;;;;;;;18.04;95.35;102711.50;5084342;28;20047;-62
2022/08/09 06:39:55;;;;;;;8.02;7.07;;;;;;;18.20;95.02;102698.84;5080402;28;20071;-62
2022/08/09 06:42:44;;;;;;;7.63;6.93;;;;;;;18.35;94.32;102704.53;5085466;28;20464;-62
2022/08/09 06:45:33;;;;;;;9.18;7.13;;;;;;;18.50;92.85;102699.69;5021280;28;20573;-62
2022/08/09 06:47:59;;;;;;;7.07;6.38;;;;;;;18.69;93.04;102701.13;5052352;28;20048;-61
2022/08/09 06:50:24;;;;;;;7.53;6.60;;;;;;;18.88;91.73;102696.34;5051986;28;20074;-62
2022/08/09 06:52:50;;;;;;;7.93;6.88;;;;;;;19.08;91.47;102699.50;5052923;28;20031;-62
2022/08/09 06:55:20;;;;;;;9.48;8.38;;;;;;;19.25;88.86;102701.72;5051525;28;20024;-62
2022/08/09 06:57:45;;;;;;;8.25;7.55;;;;;;;19.41;88.69;102709.13;5060127;28;20107;-61
2022/08/09 07:00:11;;;;;;;8.30;7.05;;;;;;;19.61;88.15;102711.34;5076020;28;20115;-61
2022/08/09 07:02:36;;;;;;;9.45;7.47;;;;;;;19.78;86.67;102708.22;5069448;28;20032;-61
2022/08/09 07:05:03;;;;;;;6.63;5.72;;;;;;;19.98;85.79;102711.31;5070237;28;20420;-62
2022/08/09 07:07:28;;;;;;;7.70;6.68;;;;;;;20.10;83.20;102710.72;5053382;28;20029;-62
2022/08/09 07:09:54;;;;;;;7.07;6.43;;;;;;;20.26;82.88;102711.03;5066774;28;20035;-62
2022/08/09 07:12:20;;;;;;;7.25;6.47;;;;;;;20.42;82.46;102714.88;5080361;28;20031;-62
2022/08/09 07:14:46;;;;;;;7.47;6.10;;;;;;;20.54;81.88;102716.88;5078326;28;20035;-62
2022/08/09 07:17:13;;;;;;;6.38;5.78;;;;;;;20.70;81.39;102722.44;5082629;28;20031;-62
2022/08/09 07:19:38;;;;;;;9.45;6.70;;;;;;;20.87;80.50;102712.22;5081881;28;20021;-62
2022/08/09 07:22:03;;;;;;;6.85;6.15;;;;;;;21.02;79.07;102719.56;5082172;28;20486;-63
2022/08/09 07:24:29;;;;;;;6.72;6.03;;;;;;;21.17;77.36;102716.31;5064581;28;20032;-62
2022/08/09 07:26:55;;;;;;;6.50;5.90;;;;;;;21.33;78.26;102714.84;5066109;28;20039;-62
2022/08/09 07:29:21;;;;;;;5.55;5.05;;;;;;;21.44;78.08;102711.47;5059490;28;20032;-62
2022/08/09 07:31:46;;;;;;;6.95;5.90;;;;;;;21.53;77.01;102706.34;5065278;28;20089;-62
2022/08/09 07:34:11;;;;;;;8.68;6.47;;;;;;;21.56;74.30;102709.03;5060346;28;20040;-62
2022/08/09 07:36:37;;;;;;;6.72;6.00;;;;;;;21.64;75.47;102721.44;5061304;28;20591;-62
2022/08/09 07:39:03;;;;;;;6.13;5.25;;;;;;;21.79;75.29;102723.41;5067203;28;20036;-62
2022/08/09 07:41:29;;;;;;;6.70;5.45;;;;;;;21.93;73.90;102724.53;5075674;28;20075;-62
2022/08/09 07:43:54;;;;;;;5.65;4.80;;;;;;;22.13;72.29;102717.75;5084079;28;20020;-62
2022/08/09 07:46:19;;;;;;;6.50;5.05;;;;;;;22.26;71.61;102724.06;5087091;28;20410;-62
2022/08/09 07:48:46;;;;;;;5.63;5.00;;;;;;;22.40;70.13;102716.31;5080942;28;20028;-62
2022/08/09 07:51:11;;;;;;;5.32;4.82;;;;;;;22.62;70.04;102722.78;5068295;28;20028;-62
2022/08/09 07:53:38;;;;;;;6.82;5.10;;;;;;;22.73;68.68;102714.97;5081160;28;20039;-62
2022/08/09 07:56:04;;;;;;;6.22;4.22;;;;;;;22.89;68.14;102717.75;5069731;28;20779;-63
2022/08/09 07:58:29;;;;;;;6.50;4.30;;;;;;;23.07;67.83;102724.09;5062990;28;20043;-62
2022/08/09 08:00:54;;;;;;;5.70;4.13;;;;;;;23.25;66.24;102721.63;5057573;28;20017;-62
2022/08/09 08:03:19;;;;;;;3.90;3.53;;;;;;;23.50;66.20;102719.19;5064690;28;20023;-62
2022/08/09 08:05:45;;;;;;;3.92;3.15;;;;;;;23.80;64.70;102731.75;5076823;28;20243;-62
2022/08/09 08:08:10;;;;;;;5.80;4.10;;;;;;;24.00;63.64;102726.53;5076769;28;20377;-62
2022/08/09 08:10:36;;;;;;;5.32;4.32;;;;;;;24.13;61.57;102727.50;5066173;28;20028;-62
2022/08/09 08:13:01;;;;;;;4.28;3.30;;;;;;;24.28;60.98;102723.19;5076988;28;20099;-62
2022/08/09 08:15:27;;;;;;;4.05;3.53;;;;;;;24.33;60.04;102724.06;5069165;28;20103;-62
2022/08/09 08:17:52;;;;;;;5.35;3.72;;;;;;;24.52;59.91;102721.50;5077311;28;20066;-62
2022/08/09 08:20:19;;;;;;;6.07;3.85;;;;;;;24.58;58.72;102729.44;5083525;28;20178;-61
2022/08/09 08:22:45;;;;;;;4.50;2.92;;;;;;;24.74;59.55;102717.13;5065432;28;20459;-62
2022/08/09 08:25:10;;;;;;;3.75;3.00;;;;;;;24.89;58.79;102710.97;5079978;28;20027;-62
2022/08/09 08:27:35;;;;;;;4.70;2.42;;;;;;;25.12;57.49;102715.41;5080245;28;20028;-63
2022/08/09 08:30:01;;;;;;;4.68;3.10;;;;;;;25.37;56.89;102712.75;5078306;28;20025;-62
2022/08/09 08:32:26;;;;;;;4.22;3.20;;;;;;;25.57;56.86;102710.94;5080041;28;20061;-63
2022/08/09 08:34:53;;;;;;;4.32;2.55;;;;;;;25.61;56.55;102712.72;5074322;28;20119;-62
2022/08/09 08:37:19;;;;;;;3.42;2.80;;;;;;;25.69;57.40;102718.06;5072692;28;20032;-62
2022/08/09 08:39:45;;;;;;;2.95;2.63;;;;;;;25.71;54.84;102719.81;5081982;28;20067;-63
2022/08/09 08:42:11;;;;;;;3.75;2.22;;;;;;;25.67;54.01;102712.75;5087940;28;20024;-63
2022/08/09 08:44:37;;;;;;;5.15;2.40;;;;;;;25.65;53.38;102720.69;5087839;28;20364;-62
2022/08/09 08:47:03;;;;;;;5.18;3.10;;;;;;;25.78;53.87;102723.31;5088073;28;20016;-62
2022/08/09 08:49:36;;;;;;;3.70;2.33;;;;;;;25.82;54.31;102713.56;5087751;28;20065;-62
2022/08/09 08:52:01;;;;;;;3.25;2.58;;;;;;;25.90;53.99;102712.66;5087021;28;20032;-62
2022/08/09 08:54:27;;;;;;;3.85;2.00;;;;;;;26.02;52.71;102726.78;5087229;28;20039;-62
2022/08/09 08:56:53;;;;;;;2.80;1.80;;;;;;;26.06;50.80;102717.94;5087416;28;20129;-62
2022/08/09 08:59:19;;;;;;;3.00;1.90;;;;;;;26.09;51.41;102722.34;5087350;28;20129;-62
2022/08/09 09:01:46;;;;;;;3.53;2.17;;;;;;;26.08;50.40;102721.47;5087288;28;20039;-62
2022/08/09 09:04:12;;;;;;;2.42;1.65;;;;;;;26.10;50.70;102726.78;5087416;28;20023;-62
2022/08/09 09:06:41;;;;;;;3.10;1.92;;;;;;;26.23;50.17;102735.56;5087506;28;20067;-62
2022/08/09 09:09:07;;;;;;;2.28;1.45;;;;;;;26.19;49.88;102733.81;5087621;28;20024;-62
2022/08/09 09:11:34;;;;;;;3.42;1.50;;;;;;;26.26;49.80;102738.22;5087206;28;20483;-62
2022/08/09 09:14:05;;;;;;;3.20;1.40;;;;;;;26.29;49.33;102740.84;5087588;28;20035;-62
2022/08/09 09:16:32;;;;;;;;;;;;;;;26.34;48.37;102736.41;5087829;28;20472;-63
2022/08/09 09:19:06;;;;;;;4.40;1.80;;;;;;;26.42;49.91;102732.84;5087135;28;20481;-63
2022/08/09 09:21:31;;;;;;;4.18;1.60;;;;;;;26.50;49.90;102739.00;5087198;28;20027;-62
2022/08/09 09:24:05;;;;;;;4.40;1.38;;;;;;;26.66;49.96;102738.94;5087165;28;20455;-62
2022/08/09 09:26:33;;;;;;;2.90;1.88;;;;;;;26.69;48.24;102746.88;5086687;28;20033;-62
2022/08/09 09:28:59;;;;;;;2.45;1.40;;;;;;;26.88;49.54;102738.78;5086808;28;20031;-63
2022/08/09 09:31:26;;;;;;;2.13;1.10;;;;;;;26.94;48.60;102744.94;5086766;28;20027;-63
2022/08/09 09:33:52;;;;;;;2.65;1.33;;;;;;;26.82;47.05;102737.06;5087142;28;20035;-62
2022/08/09 09:36:17;;;;;;;2.53;0.93;;;;;;;26.93;48.42;102737.84;5086401;28;20028;-63
2022/08/09 09:38:51;;;;;;;3.78;1.40;;;;;;;27.01;47.99;102732.47;5078083;28;20066;-63
2022/08/09 09:41:23;;;;;;;1.42;1.30;;;;;;;27.09;48.38;102728.00;5084967;28;20206;-63
2022/08/09 09:43:55;;;;;;;4.45;1.15;;;;;;;27.21;48.40;102721.72;5087081;28;20108;-63
2022/08/09 09:46:31;;;;;;;3.33;1.25;;;;;;;27.31;47.01;102727.81;5086605;28;20086;-63
2022/08/09 09:49:00;;;;;;;3.22;1.55;;;;;;;27.42;46.78;102729.47;5086947;28;20016;-63
2022/08/09 09:51:28;;;;;;;2.72;1.55;;;;;;;27.49;45.94;102717.88;5087099;28;20073;-64
2022/08/09 09:54:12;;;;;;;4.50;1.40;;;;;;;27.45;46.28;102737.47;5086663;28;20418;-64
2022/08/09 09:56:42;;;;;;;2.75;1.27;;;;;;;27.37;45.42;102731.31;5086514;28;20106;-63
2022/08/09 09:59:09;;;;;;;;;;;;;;;27.27;45.35;102733.19;5087095;28;20020;-63
2022/08/09 10:01:35;;;;;;;3.47;1.20;;;;;;;27.35;45.55;102728.66;5086613;28;19930;-64
2022/08/09 10:04:00;;;;;;;2.03;1.08;;;;;;;27.36;46.20;102734.88;5082976;28;20020;-63
2022/08/09 10:06:27;;;;;;;1.38;0.80;;;;;;;27.40;45.22;102725.97;5076870;28;20540;-63
2022/08/09 10:09:01;;;;;;;3.53;1.20;;;;;;;27.56;44.70;102737.34;5086906;28;20641;-63
2022/08/09 10:11:30;;;;;;;2.10;0.80;;;;;;;27.62;45.53;102747.94;5086174;28;20020;-63
2022/08/09 10:13:55;;;;;;;5.45;1.20;;;;;;;27.47;43.51;102738.31;5086188;28;20020;-63
2022/08/09 10:16:31;;;;;;;2.30;0.80;;;;;;;27.57;44.87;102740.00;5086598;28;20111;-64
2022/08/09 10:18:59;;;;;;;2.85;1.20;;;;;;;27.61;43.49;102734.63;5086247;28;20032;-64
2022/08/09 10:21:25;;;;;;;2.92;0.90;;;;;;;27.68;43.55;102725.69;5086526;28;20027;-63
2022/08/09 10:23:52;;;;;;;4.00;0.88;;;;;;;27.69;43.44;102727.44;5086457;28;20020;-63
2022/08/09 10:26:20;;;;;;;1.35;0.85;;;;;;;27.76;42.26;102722.94;5086593;28;20460;-63
2022/08/09 10:28:46;;;;;;;3.92;0.80;;;;;;;27.75;42.71;102727.41;5086461;28;20019;-64
2022/08/09 10:31:12;;;;;;;2.40;0.80;;;;;;;27.80;41.99;102727.34;5072716;28;20118;-63
2022/08/09 10:33:38;;;;;;;3.42;0.88;;;;;;;27.75;41.24;102727.41;5088232;28;20082;-63
2022/08/09 10:36:05;;;;;;;2.45;0.90;;;;;;;27.76;41.64;102718.53;5090261;28;20487;-64
2022/08/09 10:38:31;;;;;;;1.00;0.70;;;;;;;27.79;41.70;102723.81;5082051;28;20396;-64
2022/08/09 10:40:57;;;;;;;1.60;0.60;;;;;;;27.88;42.64;102722.84;5084498;28;20044;-63
2022/08/09 10:43:23;;;;;;;2.80;0.82;;;;;;;27.91;42.03;102719.25;5090611;28;20020;-62
2022/08/09 10:45:49;;;;;;;1.73;0.47;;;;;;;27.80;40.05;102709.59;5090559;28;20031;-63
2022/08/09 10:48:43;;;;;;;2.92;0.80;;;;;;;27.85;40.57;102714.00;5089867;28;20028;-63
2022/08/09 10:51:37;;;;;;;1.13;0.63;;;;;;;27.92;43.08;102707.72;5080730;28;20035;-63
2022/08/09 10:54:04;;;;;;;1.15;0.70;;;;;;;28.03;41.82;102705.78;5089921;28;20109;-64
2022/08/09 10:56:35;;;;;;;1.70;0.75;;;;;;;27.90;40.78;102704.19;5090389;28;20020;-63
2022/08/09 10:59:20;;;;;;;2.53;0.90;;;;;;;27.99;41.74;102700.50;5089810;28;20020;-63
2022/08/09 11:01:46;;;;;;;1.80;0.73;;;;;;;27.97;40.70;102699.66;5089723;28;20122;-63
2022/08/09 11:04:14;;;;;;;1.27;0.50;;;;;;;28.05;41.21;102703.97;5089678;28;20120;-63
2022/08/09 11:06:44;;;;;;;2.60;0.75;;;;;;;28.23;41.58;102696.63;5089521;28;20020;-63
2022/08/09 11:09:12;;;;;;;2.78;0.93;;;;;;;28.21;39.95;102695.78;5089169;28;20491;-63
2022/08/09 11:11:53;;;;;;;1.60;0.82;;;;;;;28.35;40.97;102702.72;5060018;28;20029;-63
2022/08/09 11:14:34;;;;;;;2.65;0.70;;;;;;;28.25;39.89;102700.16;5064881;28;20116;-63
2022/08/09 11:17:00;;;;;;;1.38;0.60;;;;;;;28.13;39.18;102695.91;5062258;28;20029;-63
2022/08/09 11:19:58;;;;;;;1.33;0.70;;;;;;;27.97;39.96;102705.88;5068017;28;20032;-64
2022/08/09 11:22:50;;;;;;;1.88;1.00;;;;;;;27.84;41.06;102698.91;5079104;28;20229;-65
2022/08/09 11:25:21;;;;;;;1.67;0.60;;;;;;;28.01;40.98;102704.91;5058257;28;20044;-64